Flight Track Log - Related Links

Times and Time Zones

All times are in EDT time to prevent confusion due to time zone crossing. See the SWA268 flight status page for this flight to view local times or setup timezone preferences in your user account.

Time Position Orientation Groundspeed Altitude Reporting Facility
EDT Latitude Longitude Course Direction KTS MPH feet Rate Location/Type
Sun 08:21:44 PM 28.1286 -82.5419 357° North 202 232 5,000  Level Jacksonville Center
Sun 08:22:44 PM 28.2036 -82.5486 356° North 251 289 8,000 2,850 Climbing Jacksonville Center
Sun 08:23:44 PM 28.2872 -82.5578 354° North 280 322 10,700 3,200 Climbing Jacksonville Center
Sun 08:24:44 PM 28.3769 -82.5647 356° North 301 346 14,400 3,300 Climbing Jacksonville Center
Sun 08:25:44 PM 28.4708 -82.5714 356° North 324 373 17,300 2,850 Climbing Jacksonville Center
Sun 08:26:44 PM 28.5647 -82.5831 354° North 330 380 20,100 2,350 Climbing Jacksonville Center
Sun 08:27:44 PM 28.6650 -82.5919 356° North 342 394 22,000 1,800 Climbing Jacksonville Center
Sun 08:28:44 PM 28.7611 -82.6014 355° North 370 426 23,700 1,800 Climbing Jacksonville Center
Sun 08:29:44 PM 28.8758 -82.6175 353° North 391 450 25,600 2,000 Climbing Jacksonville Center
Sun 08:30:44 PM 28.9886 -82.6339 353° North 402 463 27,700 2,250 Climbing Jacksonville Center
Sun 08:31:44 PM 29.1014 -82.6478 354° North 402 463 30,100 1,900 Climbing Jacksonville Center
Sun 08:32:44 PM 29.2142 -82.6642 353° North 408 470 31,500 950 Climbing Jacksonville Center
Sun 08:33:44 PM 29.3331 -82.6806 353° North 413 475 32,000 250 Climbing Jacksonville Center
Sun 08:34:44 PM 29.4606 -82.6922 355° North 433 498 32,000 400 Level Jacksonville Center
Sun 08:35:44 PM 29.5983 -82.6967 358° North 464 534 32,800 1,000 Climbing Jacksonville Center
Sun 08:36:44 PM 29.7297 -82.6917 North 478 550 34,000 850 Climbing Jacksonville Center
Sun 08:37:44 PM 29.8656 -82.6939 359° North 478 550 34,500 1,100 Climbing Jacksonville Center
Sun 08:38:44 PM 29.9992 -82.6936 360° North 478 550 36,200 1,250 Climbing Jacksonville Center
Sun 08:39:44 PM 30.1328 -82.6883 North 473 544 37,000 400 Climbing Jacksonville Center
Sun 08:40:44 PM 30.2642 -82.6858 North 473 544 37,000  Level Jacksonville Center
Sun 08:41:44 PM 30.3978 -82.6856 360° North 473 544 37,000  Level Jacksonville Center
Sun 08:42:44 PM 30.5294 -82.6828 North 473 544 37,000  Level Jacksonville Center
Sun 08:43:44 PM 30.6589 -82.6608 North 473 544 37,000  Level Jacksonville Center
Sun 08:44:44 PM 30.7903 -82.6386 North 473 544 37,000  Level Jacksonville Center
Sun 08:45:44 PM 30.9239 -82.6164 North 478 550 37,000  Level Jacksonville Center
Sun 08:46:44 PM 31.0553 -82.5944 North 478 550 37,000  Level Jacksonville Center
Sun 08:47:44 PM 31.1869 -82.5697 North 478 550 37,000  Level Jacksonville Center
Sun 08:48:44 PM 31.3183 -82.5497 North 478 550 37,000  Level Jacksonville Center
Sun 08:49:44 PM 31.4478 -82.5225 10° North 484 557 37,000  Level Jacksonville Center
Sun 08:51:17 PM 31.6681 -82.4869 North 492 566 37,000  Level Atlanta Center
Sun 08:52:17 PM 31.8033 -82.4675 North 492 566 37,000  Level Atlanta Center
Sun 08:53:17 PM 31.9389 -82.4456 North 487 560 37,000  Level Atlanta Center
Sun 08:54:17 PM 32.0700 -82.4261 North 482 555 37,000  Level Atlanta Center
Sun 08:55:17 PM 32.2075 -82.4039 North 482 555 37,000  Level Atlanta Center
Sun 08:56:17 PM 32.3242 -82.3822 North 482 555 37,000  Level Atlanta Center
Sun 08:57:17 PM 32.4594 -82.3650 North 482 555 37,000  Level Atlanta Center
Sun 08:58:17 PM 32.5950 -82.3450 North 482 555 37,000  Level Atlanta Center
Sun 08:59:17 PM 32.7303 -82.3203 North 482 555 37,000  Level Atlanta Center
Sun 09:00:17 PM 32.8656 -82.2978 North 482 555 37,000  Level Atlanta Center
Sun 09:01:17 PM 33.0008 -82.2778 North 482 555 37,000  Level Atlanta Center
Sun 09:02:17 PM 33.1322 -82.2553 North 482 555 37,000  Level Atlanta Center
Sun 09:03:17 PM 33.2778 -82.2325 North 482 555 37,000  Level Atlanta Center
Sun 09:04:17 PM 33.4092 -82.2097 North 476 548 37,000  Level Atlanta Center
Sun 09:05:17 PM 33.5403 -82.1869 North 476 548 37,000  Level Atlanta Center
Sun 09:06:17 PM 33.6714 -82.1642 North 476 548 37,000  Level Atlanta Center
Sun 09:07:17 PM 33.8047 -82.1439 North 476 548 37,000  Level Atlanta Center
Sun 09:08:17 PM 33.9358 -82.1208 North 476 548 37,000  Level Atlanta Center
Sun 09:09:17 PM 34.0650 -82.1003 North 476 548 37,000  Level Atlanta Center
Sun 09:10:17 PM 34.1814 -82.0803 North 476 548 37,000  Level Atlanta Center
Sun 09:11:17 PM 34.3147 -82.0544 North 471 542 37,000  Level Atlanta Center
Sun 09:12:17 PM 34.4417 -82.0339 North 471 542 37,000  Level Atlanta Center
Sun 09:13:17 PM 34.5728 -82.0106 North 471 542 37,000  Level Atlanta Center
Sun 09:14:17 PM 34.7036 -81.9872 North 471 542 37,000  Level Atlanta Center
Sun 09:15:17 PM 34.8347 -81.9636 North 471 542 37,000  Level Atlanta Center
Sun 09:16:17 PM 34.9806 -81.9397 North 471 542 37,000  Level Atlanta Center
Sun 09:17:17 PM 35.1117 -81.9289 North 471 542 37,000  Level Atlanta Center
Sun 09:18:17 PM 35.2389 -81.9231 North 458 527 37,000  Level Atlanta Center
Sun 09:19:17 PM 35.3703 -81.9144 North 458 527 37,000  Level Atlanta Center
Sun 09:20:17 PM 35.4994 -81.9086 North 458 527 37,000  Level Atlanta Center
Sun 09:21:17 PM 35.6286 -81.9028 North 458 527 37,000  Level Atlanta Center
Sun 09:22:17 PM 35.7475 -81.8972 North 458 527 37,000  Level Atlanta Center
Sun 09:23:17 PM 35.8767 -81.8911 North 458 527 37,000  Level Atlanta Center
Sun 09:24:17 PM 36.0100 -81.8825 North 465 535 37,000  Level Atlanta Center
Sun 09:25:17 PM 36.1414 -81.8739 North 471 542 37,000  Level Atlanta Center
Sun 09:26:17 PM 36.2853 -81.8700 North 471 542 37,000  Level Atlanta Center
Sun 09:28:16 PM 36.5322 -81.8583 North 476 548 37,000  Level Indianapolis Center
Sun 09:29:17 PM 36.6642 -81.8525 North 474 545 37,000  Level Indianapolis Center
Sun 09:30:18 PM 36.7961 -81.8372 North 482 555 37,000  Level Indianapolis Center
Sun 09:31:19 PM 36.9489 -81.7817 16° North 489 563 37,000  Level Indianapolis Center
Sun 09:32:20 PM 37.0764 -81.7336 17° North 481 554 37,000  Level Indianapolis Center
Sun 09:33:22 PM 37.2028 -81.6850 17° North 478 550 37,000  Level Indianapolis Center
Sun 09:34:23 PM 37.3297 -81.6369 17° North 475 547 37,000  Level Indianapolis Center
Sun 09:35:24 PM 37.4564 -81.5867 17° North 475 547 37,000  Level Indianapolis Center
Sun 09:36:25 PM 37.5836 -81.5367 17° North 478 550 37,000  Level Indianapolis Center
Sun 09:37:26 PM 37.7206 -81.4839 17° North 477 549 37,000  Level Indianapolis Center
Sun 09:38:27 PM 37.8431 -81.4347 18° North 473 544 37,000  Level Indianapolis Center
Sun 09:39:29 PM 37.9719 -81.3858 17° North 476 548 37,000  Level Indianapolis Center
Sun 09:40:30 PM 38.0989 -81.3353 17° North 477 549 37,000  Level Indianapolis Center
Sun 09:41:31 PM 38.2250 -81.2847 17° North 475 547 37,000  Level Indianapolis Center
Sun 09:42:32 PM 38.3497 -81.2347 17° North 474 545 37,000  Level Indianapolis Center
Sun 09:43:33 PM 38.4744 -81.1844 18° North 475 547 37,000  Level Indianapolis Center
Sun 09:44:35 PM 38.6231 -81.1253 17° North 471 542 37,000  Level Indianapolis Center
Sun 09:45:36 PM 38.7464 -81.0742 18° North 471 542 37,000  Level Indianapolis Center
Sun 09:46:37 PM 38.8711 -81.0239 17° North 472 543 37,000  Level Indianapolis Center
Sun 09:47:38 PM 38.9967 -80.9742 17° North 475 547 37,000  Level Indianapolis Center
Sun 09:48:39 PM 39.1217 -80.9242 17° North 472 543 37,000  Level Indianapolis Center
Sun 09:49:41 PM 39.2461 -80.8725 18° North 470 541 37,000  Level Indianapolis Center
Sun 09:50:42 PM 39.3700 -80.8214 18° North 468 539 37,000  Level Indianapolis Center
Sun 09:51:43 PM 39.4961 -80.7697 18° North 474 545 37,000  Level Indianapolis Center
Sun 09:52:44 PM 39.6197 -80.7183 18° North 468 539 37,000  Level Indianapolis Center
Sun 09:53:40 PM 39.7586 -80.6614 17° North 464 534 37,000  Level Cleveland Center
Sun 09:54:40 PM 39.8817 -80.6100 18° North 464 534 37,000  Level Cleveland Center
Sun 09:55:40 PM 40.0067 -80.5586 17° North 464 534 37,000  Level Cleveland Center
Sun 09:56:40 PM 40.1297 -80.5069 18° North 464 534 37,000 -50 Level Cleveland Center
Sun 09:57:40 PM 40.2525 -80.4553 18° North 464 534 36,900 -550 Descending Cleveland Center
Sun 09:58:40 PM 40.3756 -80.4033 18° North 459 528 35,900 -900 Descending Cleveland Center
Sun 09:59:40 PM 40.4733 -80.3619 18° North 459 528 35,100 -900 Descending Cleveland Center
Sun 10:00:40 PM 40.6067 -80.3097 17° North 451 519 34,100 -1,000 Descending Cleveland Center
Sun 10:01:40 PM 40.7256 -80.2544 19° North 456 525 33,100 -1,000 Descending Cleveland Center
Sun 10:02:40 PM 40.8419 -80.2044 18° North 451 519 32,100 -1,000 Descending Cleveland Center
Sun 10:03:40 PM 40.9564 -80.1406 23° Northeast 441 507 31,100 -1,000 Descending Cleveland Center
Sun 10:04:40 PM 41.0667 -80.0792 23° Northeast 435 501 30,100 -1,050 Descending Cleveland Center
Sun 10:05:40 PM 41.1769 -80.0175 23° Northeast 435 501 29,000 -1,050 Descending Cleveland Center
Sun 10:06:40 PM 41.2850 -79.9586 22° Northeast 430 495 28,000 -1,000 Descending Cleveland Center
Sun 10:07:40 PM 41.3889 -79.8994 23° Northeast 420 483 27,000 -1,000 Descending Cleveland Center
Sun 10:08:40 PM 41.4928 -79.8431 22° Northeast 408 470 26,000 -1,000 Descending Cleveland Center
Sun 10:09:40 PM 41.5944 -79.7864 23° Northeast 403 464 25,000 -950 Descending Cleveland Center
Sun 10:10:40 PM 41.7108 -79.7181 24° Northeast 398 458 24,100 -950 Descending Cleveland Center
Sun 10:11:40 PM 41.8186 -79.6581 23° Northeast 412 474 23,100 -950 Descending Cleveland Center
Sun 10:12:40 PM 41.9183 -79.6008 23° Northeast 418 481 22,200 -1,450 Descending Cleveland Center
Sun 10:13:40 PM 42.0261 -79.5433 22° Northeast 418 481 20,200 -2,100 Descending Cleveland Center
Sun 10:14:40 PM 42.1278 -79.4858 23° Northeast 407 468 18,000 -2,050 Descending Cleveland Center
Sun 10:15:40 PM 42.2253 -79.4281 24° Northeast 391 450 16,100 -2,450 Descending Cleveland Center
Sun 10:16:40 PM 42.3225 -79.3700 24° Northeast 385 443 13,100 -2,550 Descending Cleveland Center
Sun 10:17:40 PM 42.4200 -79.3175 22° Northeast 379 436 11,000 -1,250 Descending Cleveland Center
Sun 10:18:40 PM 42.5089 -79.2539 28° Northeast 348 400 10,600 -850 Descending Cleveland Center
Sun 10:19:40 PM 42.5622 -79.1906 41° Northeast 306 352 9,300 -1,350 Descending Cleveland Center
Sun 10:20:40 PM 42.6261 -79.1158 41° Northeast 276 318 7,900 -1,350 Descending Cleveland Center
Sun 10:21:40 PM 42.6814 -79.0467 43° Northeast 258 297 6,600 -1,450 Descending Cleveland Center
Sun 10:22:40 PM 42.7347 -78.9861 40° Northeast 258 297 5,000 -1,150 Descending Cleveland Center
Sun 10:23:40 PM 42.7839 -78.9283 41° Northeast 253 291 4,300 -650 Descending Cleveland Center
Sun 10:24:40 PM 42.8353 -78.8675 41° Northeast 233 268 3,700 -769 Descending Cleveland Center
Sun 10:26:16 PM 42.8833 -78.8000 46° Northeast 140 161 2,300 -962 Descending Buffalo TRACON
Sun 10:27:16 PM 42.9167 -78.7667 36° Northeast 121 139 1,200 -1,100 Descending Buffalo TRACON
Sun 10:29:00 PM 42.9333 -78.7167 48° Northeast  Level FlightAware Approximate
Sun 10:36:00 PM 42.9404 -78.7306 48° Northeast  Level Estimated

Login

Don't have an account? Register now (free) for customized features, flight alerts, and more!